createdAt,value
2019-06-01T00:19:27.631Z,69.16
2019-06-01T00:34:50.104Z,69.52
2019-06-01T00:50:01.817Z,69.99
2019-06-01T01:05:22.739Z,70.13
2019-06-01T01:20:31.852Z,70.02
2019-06-01T01:35:40.994Z,70.01
2019-06-01T01:50:50.241Z,69.87
2019-06-01T02:05:59.251Z,70.15
2019-06-01T02:21:08.732Z,70.47
2019-06-01T02:36:19.075Z,70.39
2019-06-01T02:51:28.929Z,69.83
2019-06-01T03:06:41.647Z,69.78
2019-06-01T03:21:51.715Z,69.10
2019-06-01T03:37:01.113Z,68.70
2019-06-01T03:52:10.612Z,67.94
2019-06-01T04:07:19.899Z,68.17
2019-06-01T04:22:29.486Z,67.15
2019-06-01T04:37:41.006Z,63.85
2019-06-01T04:52:50.189Z,59.24
2019-06-01T05:07:58.658Z,53.86
2019-06-01T05:23:08.622Z,49.27
2019-06-01T05:38:18.501Z,46.63
2019-06-01T05:53:44.238Z,44.18
2019-06-01T06:08:56.167Z,43.31
2019-06-01T06:24:06.137Z,43.41
2019-06-01T06:39:15.757Z,42.75
2019-06-01T06:54:27.006Z,44.72
2019-06-01T07:09:37.338Z,46.36
2019-06-01T07:24:46.270Z,43.83
2019-06-01T07:39:57.062Z,44.51
2019-06-01T07:55:12.185Z,46.22
2019-06-01T08:10:23.107Z,46.39
2019-06-01T08:25:32.863Z,45.36
2019-06-01T08:40:41.616Z,46.15
2019-06-01T08:55:49.986Z,46.58
2019-06-01T09:11:00.753Z,45.74
2019-06-01T09:26:13.795Z,45.87
2019-06-01T09:41:24.341Z,46.01
2019-06-01T09:56:37.224Z,45.37
2019-06-01T10:11:47.005Z,43.47
2019-06-01T10:26:56.452Z,43.82
2019-06-01T10:42:06.292Z,41.05
2019-06-01T10:57:34.490Z,43.68
2019-06-01T11:51:26.956Z,42.67
2019-06-01T12:06:37.828Z,42.98
2019-06-01T12:21:51.379Z,42.60
2019-06-01T12:37:02.352Z,41.17
2019-06-01T12:52:29.244Z,42.93
2019-06-01T13:07:50.897Z,40.98
2019-06-01T13:22:47.713Z,42.42
2019-06-01T13:38:10.471Z,42.86
2019-06-01T13:53:10.163Z,41.55
2019-06-01T14:08:29.054Z,49.60
2019-06-01T14:23:30.343Z,53.52
2019-06-01T14:38:47.102Z,55.85
2019-06-01T14:54:08.482Z,57.26
2019-06-01T15:09:19.312Z,57.33
2019-06-01T15:41:58.909Z,58.97
2019-06-01T15:57:11.481Z,59.05
2019-06-01T16:12:41.085Z,59.01
2019-06-01T16:27:54.622Z,55.57
2019-06-01T16:43:15.485Z,54.90
2019-06-01T18:19:56.628Z,57.38
2019-06-01T18:35:07.597Z,57.45
2019-06-01T18:50:17.768Z,58.65
2019-06-01T19:05:29.180Z,59.76
2019-06-01T19:20:39.168Z,60.25
2019-06-01T19:35:49.764Z,61.35
2019-06-01T19:51:00.520Z,62.30
2019-06-01T20:06:09.111Z,63.25
2019-06-01T20:21:20.665Z,64.00
2019-06-01T20:36:30.384Z,64.86
2019-06-01T20:51:43.520Z,65.81
2019-06-01T21:07:17.836Z,66.44
2019-06-01T21:22:25.854Z,66.36
2019-06-01T21:37:34.952Z,67.40
2019-06-01T21:52:54.303Z,67.43
2019-06-01T22:08:07.072Z,68.33
2019-06-01T22:23:17.900Z,68.33
2019-06-01T22:38:30.866Z,68.61
2019-06-01T22:53:40.587Z,68.65
2019-06-01T23:25:07.210Z,69.09
2019-06-01T23:40:16.975Z,69.64
